Terminal Aerodrome Forecast
Issued by NWS

Home | Current Version | Previous Version | Text Only | Print | Product List | Glossary On
Versions: 1 2 3 4 5 6 7 8 9 10 11 12 13 14 15 16
191
FTUS41 KPHI 062059 AAA
TAFMIV
TAF AMD
KMIV 062059Z 0621/0718 09010KT 6SM -RA BR OVC060
     FM062200 07012KT 4SM -RA BR OVC009
     FM070300 03010KT 3SM -RADZ BR OVC004=

USA.gov is the U.S. government's official web portal to all federal, state and local government web resources and services.